CST,Max TemperatureF,Mean TemperatureF,Min TemperatureF,Max Dew PointF,MeanDew PointF,Min DewpointF,Max Humidity, Mean Humidity, Min Humidity, Max Sea Level PressureIn, Mean Sea Level PressureIn, Min Sea Level PressureIn, Max VisibilityMiles, Mean VisibilityMiles, Min VisibilityMiles, Max Wind SpeedMPH, Mean Wind SpeedMPH, Max Gust SpeedMPH,PrecipitationIn, CloudCover, Events, WindDirDegrees
2012-11-1,53,42,32,32,27,19,81,59,38,29.99,29.92,29.86,10,10,10,15,2,22,0.00,4,,319
2012-11-2,44,34,24,28,27,23,93,71,46,30.15,30.09,30.01,10,10,10,5,1,,0.00,1,,254
2012-11-3,46,40,35,32,30,28,81,67,53,30.24,30.19,30.14,10,10,7,6,1,,0.00,8,,94
2012-11-4,46,42,37,37,34,32,93,77,57,30.25,30.20,30.16,10,9,3,6,1,,0.01,7,Rain,107
2012-11-5,46,37,28,36,30,25,87,69,49,30.21,30.15,30.09,10,10,10,8,3,,0.00,4,,96
2012-11-6,39,34,30,37,34,27,100,90,75,30.08,29.90,29.81,10,5,1,7,3,,0.16,7,Rain,106
2012-11-7,44,40,37,37,36,34,93,81,66,30.14,30.07,29.91,10,10,7,7,2,,0.01,8,,310
2012-11-8,51,43,35,36,34,32,93,73,54,30.14,30.07,29.99,10,10,7,14,3,18,0.00,1,,130
2012-11-9,53,43,33,41,38,32,93,76,58,30.04,29.98,29.91,10,7,4,10,4,16,0.00,5,,91
2012-11-10,69,58,48,54,49,41,87,66,43,29.92,29.74,29.66,10,8,4,15,9,26,0.00,2,,131
2012-11-11,66,48,30,55,41,19,94,77,46,30.00,29.78,29.64,10,9,2,22,12,32,1.12,8,Rain,231
2012-11-12,28,26,23,21,17,14,80,69,64,30.34,30.15,30.00,10,10,7,20,12,28,0.00,6,Snow,250
2012-11-13,41,29,17,23,19,16,93,66,42,30.47,30.41,30.34,10,10,10,7,2,,0.00,1,,216
2012-11-14,51,42,33,32,28,25,70,58,43,30.40,30.33,30.28,10,10,10,9,6,,0.00,2,,206
2012-11-15,53,42,32,34,30,27,100,66,41,30.37,30.28,30.24,10,10,7,8,4,,0.00,1,,232
2012-11-16,50,38,26,34,30,25,100,80,50,30.47,30.43,30.38,10,8,4,6,0,,0.00,0,,123
2012-11-17,55,40,26,36,31,25,100,73,44,30.45,30.40,30.36,10,7,1,9,4,17,0.00,0,,92
2012-11-18,57,47,37,36,32,30,81,60,36,30.37,30.28,30.23,10,9,7,13,6,17,0.00,0,,103
2012-11-19,53,48,44,45,37,34,87,64,54,30.22,30.12,30.06,10,10,7,9,6,,0.00,7,Rain,62
2012-11-20,46,42,39,43,41,37,100,95,87,30.18,30.14,30.06,7,2,0,5,2,,0.00,7,Fog,310
2012-11-21,64,50,37,43,41,36,100,75,42,30.17,30.06,29.93,10,6,0,6,6,,0.00,2,Fog,320
2012-11-22,62,50,37,46,37,27,70,57,47,29.95,29.81,29.67,10,10,10,,,,0.00,2,,-1
2012-11-23,37,30,24,27,16,12,65,61,55,30.30,30.17,29.94,10,10,7,,,,0.00,8,,-1
2012-11-24,32,26,21,19,16,14,74,62,51,30.29,30.14,29.87,10,10,10,,,,0.00,5,,-1
2012-11-25,39,30,21,23,21,18,86,69,49,30.13,29.95,29.83,10,10,7,,,,0.00,0,,-1
2012-11-26,30,24,17,23,13,7,86,62,40,30.41,30.29,30.13,10,10,10,,,,0.00,2,,-1
2012-11-27,32,22,12,14,11,9,85,61,41,30.40,30.30,30.21,10,10,10,10,6,,0.00,3,,195
2012-11-28,42,30,17,23,19,14,93,67,39,30.38,30.28,30.18,10,10,7,8,1,,0.00,0,,240
2012-11-29,48,37,26,32,27,21,93,74,50,30.19,30.08,30.01,10,10,7,8,1,,0.00,1,,111
2012-11-30,41,36,30,34,32,28,100,84,75,30.15,30.10,30.04,10,5,1,9,3,,0.00,6,,70